Time,TemperatureF,DewpointF,PressureIn,WindDirection,WindDirectionDegrees,WindSpeedMPH,WindSpeedGustMPH,Humidity,HourlyPrecipIn,Conditions,Clouds,dailyrainin,SoftwareType,DateUTC
2013-03-05 00:00:00,38.6,27.1,30.18,NNW,331,0.0,0.0,63,0.00,,,0.00,Wunderground v.1.15,2013-03-05 05:00:00,
2013-03-05 00:01:00,38.6,27.1,30.18,NNW,331,0.0,1.0,63,0.00,,,0.00,Wunderground v.1.15,2013-03-05 05:01:00,
2013-03-05 00:02:00,38.6,27.1,30.18,NNW,331,0.0,3.0,63,0.00,,,0.00,Wunderground v.1.15,2013-03-05 05:02:00,
2013-03-05 00:05:00,38.7,26.8,30.18,NNW,329,1.0,3.0,62,0.00,,,0.00,Wunderground v.1.15,2013-03-05 05:05:00,
2013-03-05 00:10:00,38.9,26.6,30.19,NNW,329,2.0,2.0,61,0.00,,,0.00,Wunderground v.1.15,2013-03-05 05:10:00,
2013-03-05 00:16:00,39.0,27.8,30.18,NNW,329,1.0,2.0,64,0.00,,,0.00,Wunderground v.1.15,2013-03-05 05:16:00,
2013-03-05 00:22:00,38.9,27.8,30.18,NNW,329,1.0,1.0,64,0.00,,,0.00,Wunderground v.1.15,2013-03-05 05:22:00,
2013-03-05 00:28:00,38.8,27.7,30.18,NNW,329,0.0,1.0,64,0.00,,,0.00,Wunderground v.1.15,2013-03-05 05:28:00,
2013-03-05 00:34:00,38.6,27.5,30.18,NNW,329,0.0,1.0,64,0.00,,,0.00,Wunderground v.1.15,2013-03-05 05:34:00,
2013-03-05 00:40:00,38.5,27.4,30.18,NNW,329,0.0,1.0,64,0.00,,,0.00,Wunderground v.1.15,2013-03-05 05:40:00,
2013-03-05 00:51:00,38.4,27.7,30.18,NNW,329,0.0,1.0,65,0.00,,,0.00,Wunderground v.1.15,2013-03-05 05:51:00,
2013-03-05 00:56:00,38.4,27.7,30.18,NNW,328,1.0,3.0,65,0.00,,,0.00,Wunderground v.1.15,2013-03-05 05:56:00,
2013-03-05 01:02:00,38.7,27.6,30.19,NNW,340,1.0,2.0,64,0.00,,,0.00,Wunderground v.1.15,2013-03-05 06:02:00,
2013-03-05 01:08:00,40.0,27.6,30.18,NW,317,1.0,3.0,61,0.00,,,0.00,Wunderground v.1.15,2013-03-05 06:08:00,
2013-03-05 01:13:00,40.5,27.7,30.18,NW,317,1.0,2.0,60,0.00,,,0.00,Wunderground v.1.15,2013-03-05 06:13:00,
2013-03-05 01:19:00,40.4,27.6,30.17,NW,315,1.0,2.0,60,0.00,,,0.00,Wunderground v.1.15,2013-03-05 06:19:00,
2013-03-05 01:24:00,40.1,27.7,30.17,NW,315,1.0,2.0,61,0.00,,,0.00,Wunderground v.1.15,2013-03-05 06:24:00,
2013-03-05 01:30:00,39.7,27.7,30.17,NW,315,0.0,1.0,62,0.00,,,0.00,Wunderground v.1.15,2013-03-05 06:30:00,
2013-03-05 01:35:00,39.5,27.5,30.16,NW,315,1.0,2.0,62,0.00,,,0.00,Wunderground v.1.15,2013-03-05 06:35:00,
2013-03-05 01:41:00,39.5,27.9,30.16,NW,315,1.0,2.0,63,0.00,,,0.00,Wunderground v.1.15,2013-03-05 06:41:00,
2013-03-05 02:51:00,41.0,29.0,30.11,WNW,298,0.0,1.0,62,0.00,,,0.00,Wunderground v.1.15,2013-03-05 07:51:00,
2013-03-05 02:56:00,41.3,28.9,30.11,WNW,298,1.0,3.0,61,0.00,,,0.00,Wunderground v.1.15,2013-03-05 07:56:00,
2013-03-05 03:01:00,41.6,29.9,30.11,WNW,298,1.0,2.0,63,0.00,,,0.00,Wunderground v.1.15,2013-03-05 08:01:00,
2013-03-05 03:07:00,41.7,30.0,30.10,WNW,298,0.0,2.0,63,0.00,,,0.00,Wunderground v.1.15,2013-03-05 08:07:00,
2013-03-05 03:13:00,41.9,29.8,30.10,WNW,298,0.0,0.0,62,0.00,,,0.00,Wunderground v.1.15,2013-03-05 08:13:00,
2013-03-05 03:18:00,42.0,29.9,30.09,WNW,298,0.0,1.0,62,0.00,,,0.00,Wunderground v.1.15,2013-03-05 08:18:00,
2013-03-05 03:23:00,42.1,30.0,30.09,WNW,298,0.0,1.0,62,0.00,,,0.00,Wunderground v.1.15,2013-03-05 08:23:00,
2013-03-05 03:29:00,42.3,29.8,30.09,WNW,298,0.0,1.0,61,0.00,,,0.00,Wunderground v.1.15,2013-03-05 08:29:00,
2013-03-05 03:35:00,42.3,31.0,30.09,WNW,298,0.0,0.0,64,0.00,,,0.00,Wunderground v.1.15,2013-03-05 08:35:00,
2013-03-05 03:41:00,42.3,30.6,30.09,WNW,298,0.0,0.0,63,0.00,,,0.00,Wunderground v.1.15,2013-03-05 08:41:00,
2013-03-05 03:51:00,42.3,31.0,30.08,WNW,298,0.0,0.0,64,0.00,,,0.00,Wunderground v.1.15,2013-03-05 08:51:00,
2013-03-05 03:56:00,42.4,29.9,30.08,WNW,298,0.0,2.0,61,0.00,,,0.00,Wunderground v.1.15,2013-03-05 08:56:00,
2013-03-05 04:01:00,42.5,30.4,30.08,WNW,298,0.0,0.0,62,0.00,,,0.00,Wunderground v.1.15,2013-03-05 09:01:00,
2013-03-05 04:06:00,42.5,30.8,30.08,WNW,298,0.0,0.0,63,0.00,,,0.00,Wunderground v.1.15,2013-03-05 09:06:00,
2013-03-05 04:12:00,42.5,31.6,30.07,WNW,298,0.0,1.0,65,0.00,,,0.00,Wunderground v.1.15,2013-03-05 09:12:00,
2013-03-05 04:18:00,42.6,30.9,30.07,WNW,298,0.0,1.0,63,0.00,,,0.00,Wunderground v.1.15,2013-03-05 09:18:00,
2013-03-05 04:23:00,42.6,31.3,30.07,WNW,298,0.0,0.0,64,0.00,,,0.00,Wunderground v.1.15,2013-03-05 09:23:00,
2013-03-05 04:29:00,42.6,30.5,30.07,WNW,298,0.0,0.0,62,0.00,,,0.00,Wunderground v.1.15,2013-03-05 09:29:00,
2013-03-05 04:35:00,42.6,30.9,30.07,WNW,298,0.0,0.0,63,0.00,,,0.00,Wunderground v.1.15,2013-03-05 09:35:00,
2013-03-05 04:40:00,42.6,31.3,30.07,WNW,298,0.0,0.0,64,0.00,,,0.00,Wunderground v.1.15,2013-03-05 09:40:00,
2013-03-05 04:51:00,42.5,30.8,30.06,WNW,298,0.0,0.0,63,0.00,,,0.00,Wunderground v.1.15,2013-03-05 09:51:00,
2013-03-05 04:56:00,42.5,31.2,30.06,WNW,298,0.0,0.0,64,0.00,,,0.00,Wunderground v.1.15,2013-03-05 09:56:00,
2013-03-05 05:02:00,42.5,30.8,30.06,WNW,298,0.0,0.0,63,0.00,,,0.00,Wunderground v.1.15,2013-03-05 10:02:00,
2013-03-05 05:07:00,42.5,31.2,30.06,WNW,298,0.0,0.0,64,0.00,,,0.00,Wunderground v.1.15,2013-03-05 10:07:00,
2013-03-05 05:13:00,42.5,30.8,30.06,WNW,298,0.0,0.0,63,0.00,,,0.00,Wunderground v.1.15,2013-03-05 10:13:00,
2013-03-05 05:18:00,42.4,30.7,30.06,WNW,298,0.0,0.0,63,0.00,,,0.00,Wunderground v.1.15,2013-03-05 10:18:00,
2013-03-05 05:23:00,42.4,31.1,30.05,WNW,298,0.0,0.0,64,0.00,,,0.00,Wunderground v.1.15,2013-03-05 10:23:00,
2013-03-05 05:29:00,42.4,31.5,30.05,WNW,298,0.0,0.0,65,0.00,,,0.00,Wunderground v.1.15,2013-03-05 10:29:00,
2013-03-05 05:34:00,42.3,31.4,30.05,WNW,298,0.0,0.0,65,0.00,,,0.00,Wunderground v.1.15,2013-03-05 10:34:00,
2013-03-05 05:40:00,42.3,31.4,30.05,WNW,298,0.0,0.0,65,0.00,,,0.00,Wunderground v.1.15,2013-03-05 10:40:00,
2013-03-05 05:51:00,42.2,31.3,30.05,WNW,298,0.0,0.0,65,0.00,,,0.00,Wunderground v.1.15,2013-03-05 10:51:00,
2013-03-05 05:56:00,42.2,31.6,30.05,WNW,298,0.0,0.0,66,0.00,,,0.00,Wunderground v.1.15,2013-03-05 10:56:00,
2013-03-05 06:01:00,42.2,31.3,30.05,WNW,298,0.0,0.0,65,0.00,,,0.00,Wunderground v.1.15,2013-03-05 11:01:00,
2013-03-05 06:06:00,42.1,31.2,30.05,WNW,298,0.0,0.0,65,0.00,,,0.00,Wunderground v.1.15,2013-03-05 11:06:00,
2013-03-05 06:12:00,42.1,31.6,30.05,WNW,298,0.0,0.0,66,0.00,,,0.00,Wunderground v.1.15,2013-03-05 11:12:00,
2013-03-05 06:17:00,42.1,31.6,30.04,WNW,298,0.0,0.0,66,0.00,,,0.00,Wunderground v.1.15,2013-03-05 11:17:00,
2013-03-05 06:23:00,42.1,32.3,30.04,WNW,298,0.0,0.0,68,0.00,,,0.00,Wunderground v.1.15,2013-03-05 11:23:00,
2013-03-05 06:29:00,42.0,32.2,30.04,WNW,298,0.0,0.0,68,0.00,,,0.00,Wunderground v.1.15,2013-03-05 11:29:00,
2013-03-05 06:35:00,41.9,31.4,30.04,WNW,298,0.0,0.0,66,0.00,,,0.00,Wunderground v.1.15,2013-03-05 11:35:00,
2013-03-05 06:41:00,41.9,31.4,30.04,WNW,298,0.0,0.0,66,0.00,,,0.00,Wunderground v.1.15,2013-03-05 11:41:00,
2013-03-05 06:51:00,41.9,31.4,30.03,WNW,298,0.0,0.0,66,0.00,,,0.00,Wunderground v.1.15,2013-03-05 11:51:00,
2013-03-05 06:57:00,41.8,31.3,30.03,WNW,298,0.0,0.0,66,0.00,,,0.00,Wunderground v.1.15,2013-03-05 11:57:00,
2013-03-05 07:02:00,41.8,29.3,30.03,WNW,298,0.0,0.0,61,0.00,,,0.00,Wunderground v.1.15,2013-03-05 12:02:00,
2013-03-05 07:07:00,41.9,29.0,30.02,WNW,298,0.0,0.0,60,0.00,,,0.00,Wunderground v.1.15,2013-03-05 12:07:00,
2013-03-05 07:13:00,42.0,29.1,30.02,WNW,298,0.0,0.0,60,0.00,,,0.00,Wunderground v.1.15,2013-03-05 12:13:00,
2013-03-05 07:18:00,42.0,30.3,30.01,WNW,298,0.0,0.0,63,0.00,,,0.00,Wunderground v.1.15,2013-03-05 12:18:00,
2013-03-05 07:24:00,41.9,29.8,30.01,WNW,298,0.0,0.0,62,0.00,,,0.00,Wunderground v.1.15,2013-03-05 12:24:00,
2013-03-05 07:30:00,41.8,30.1,30.01,WNW,298,0.0,0.0,63,0.00,,,0.00,Wunderground v.1.15,2013-03-05 12:30:00,
2013-03-05 07:36:00,41.8,29.7,30.01,WNW,298,0.0,0.0,62,0.00,,,0.00,Wunderground v.1.15,2013-03-05 12:36:00,
2013-03-05 07:41:00,41.7,30.4,30.01,WNW,298,0.0,0.0,64,0.00,,,0.00,Wunderground v.1.15,2013-03-05 12:41:00,
2013-03-05 07:51:00,41.6,32.5,30.01,WNW,298,0.0,0.0,70,0.00,,,0.00,Wunderground v.1.15,2013-03-05 12:51:00,
2013-03-05 07:56:00,41.1,33.8,30.01,WNW,298,0.0,0.0,75,0.00,,,0.00,Wunderground v.1.15,2013-03-05 12:56:00,
2013-03-05 08:01:00,40.7,34.7,30.01,WNW,298,0.0,0.0,79,0.00,,,0.01,Wunderground v.1.15,2013-03-05 13:01:00,
2013-03-05 08:06:00,40.4,35.0,30.01,WNW,298,0.0,1.0,81,0.00,,,0.01,Wunderground v.1.15,2013-03-05 13:06:00,
2013-03-05 08:12:00,40.0,35.6,30.00,WNW,298,0.0,0.0,84,0.00,,,0.01,Wunderground v.1.15,2013-03-05 13:12:00,
2013-03-05 08:17:00,39.8,35.7,30.00,WNW,298,0.0,0.0,85,0.04,,,0.02,Wunderground v.1.15,2013-03-05 13:17:00,
2013-03-05 08:23:00,39.5,36.0,30.00,WNW,298,0.0,0.0,87,0.08,,,0.03,Wunderground v.1.15,2013-03-05 13:23:00,
2013-03-05 08:29:00,39.3,36.0,30.00,WNW,298,0.0,0.0,88,0.08,,,0.03,Wunderground v.1.15,2013-03-05 13:29:00,
2013-03-05 08:35:00,39.1,36.1,30.00,WNW,298,0.0,0.0,89,0.05,,,0.03,Wunderground v.1.15,2013-03-05 13:35:00,
2013-03-05 08:41:00,39.0,36.3,30.00,WNW,298,0.0,0.0,90,0.00,,,0.03,Wunderground v.1.15,2013-03-05 13:41:00,
2013-03-05 08:51:00,39.0,36.6,30.00,WNW,298,0.0,0.0,91,0.00,,,0.03,Wunderground v.1.15,2013-03-05 13:51:00,
2013-03-05 08:56:00,39.0,36.6,30.00,WNW,298,0.0,1.0,91,0.00,,,0.03,Wunderground v.1.15,2013-03-05 13:56:00,
2013-03-05 09:01:00,39.0,36.6,30.00,WNW,298,0.0,0.0,91,0.00,,,0.03,Wunderground v.1.15,2013-03-05 14:01:00,
2013-03-05 09:06:00,39.1,36.7,30.00,WNW,298,0.0,0.0,91,0.00,,,0.03,Wunderground v.1.15,2013-03-05 14:06:00,
2013-03-05 09:12:00,39.1,36.7,29.99,WNW,298,0.0,0.0,91,0.00,,,0.03,Wunderground v.1.15,2013-03-05 14:12:00,
2013-03-05 09:17:00,38.9,36.5,29.98,WNW,298,0.0,0.0,91,0.00,,,0.03,Wunderground v.1.15,2013-03-05 14:17:00,
2013-03-05 09:23:00,38.8,36.4,29.98,WNW,298,0.0,0.0,91,0.00,,,0.03,Wunderground v.1.15,2013-03-05 14:23:00,
2013-03-05 09:28:00,38.7,36.0,29.98,WNW,298,0.0,0.0,90,0.00,,,0.03,Wunderground v.1.15,2013-03-05 14:28:00,
2013-03-05 09:34:00,38.6,35.9,29.98,WNW,298,0.0,0.0,90,0.00,,,0.03,Wunderground v.1.15,2013-03-05 14:34:00,
2013-03-05 09:40:00,38.5,35.8,29.97,WNW,298,0.0,0.0,90,0.00,,,0.03,Wunderground v.1.15,2013-03-05 14:40:00,
2013-03-05 09:51:00,38.2,35.5,29.96,WNW,298,0.0,0.0,90,0.00,,,0.03,Wunderground v.1.15,2013-03-05 14:51:00,
2013-03-05 09:56:00,38.2,35.5,29.96,WNW,298,0.0,0.0,90,0.00,,,0.03,Wunderground v.1.15,2013-03-05 14:56:00,
2013-03-05 10:02:00,38.0,35.3,29.96,WNW,298,0.0,0.0,90,0.00,,,0.03,Wunderground v.1.15,2013-03-05 15:02:00,
2013-03-05 10:08:00,38.1,35.7,29.95,WNW,298,0.0,0.0,91,0.00,,,0.03,Wunderground v.1.15,2013-03-05 15:08:00,
2013-03-05 10:13:00,38.1,35.7,29.95,WNW,298,0.0,0.0,91,0.00,,,0.03,Wunderground v.1.15,2013-03-05 15:13:00,
2013-03-05 10:19:00,38.3,36.2,29.95,WNW,298,0.0,0.0,92,0.00,,,0.03,Wunderground v.1.15,2013-03-05 15:19:00,
2013-03-05 10:25:00,38.3,36.2,29.95,WNW,298,0.0,0.0,92,0.00,,,0.03,Wunderground v.1.15,2013-03-05 15:25:00,
2013-03-05 10:30:00,38.4,36.3,29.95,WNW,298,0.0,0.0,92,0.00,,,0.04,Wunderground v.1.15,2013-03-05 15:30:00,
2013-03-05 10:35:00,38.5,36.4,29.95,WNW,298,0.0,0.0,92,0.00,,,0.04,Wunderground v.1.15,2013-03-05 15:35:00,
2013-03-05 10:41:00,38.6,36.8,29.94,WNW,298,0.0,0.0,93,0.00,,,0.04,Wunderground v.1.15,2013-03-05 15:41:00,
2013-03-05 10:51:00,38.8,36.9,29.93,WNW,298,0.0,0.0,93,0.00,,,0.04,Wunderground v.1.15,2013-03-05 15:51:00,
2013-03-05 10:56:00,39.0,37.1,29.93,WNW,298,0.0,0.0,93,0.00,,,0.04,Wunderground v.1.15,2013-03-05 15:56:00,
2013-03-05 11:01:00,39.1,37.2,29.92,WNW,298,0.0,0.0,93,0.00,,,0.04,Wunderground v.1.15,2013-03-05 16:01:00,
2013-03-05 11:07:00,39.3,37.4,29.92,WNW,298,0.0,0.0,93,0.00,,,0.04,Wunderground v.1.15,2013-03-05 16:07:00,
2013-03-05 11:13:00,39.5,37.9,29.92,WNW,298,0.0,0.0,94,0.00,,,0.04,Wunderground v.1.15,2013-03-05 16:13:00,
2013-03-05 11:18:00,39.7,38.1,29.91,WNW,298,0.0,0.0,94,0.00,,,0.04,Wunderground v.1.15,2013-03-05 16:18:00,
2013-03-05 11:24:00,39.9,38.3,29.91,WNW,298,0.0,0.0,94,0.00,,,0.04,Wunderground v.1.15,2013-03-05 16:24:00,
2013-03-05 11:29:00,40.1,38.5,29.91,WNW,298,0.0,0.0,94,0.00,,,0.04,Wunderground v.1.15,2013-03-05 16:29:00,
2013-03-05 11:35:00,40.5,38.9,29.90,WNW,298,0.0,0.0,94,0.00,,,0.04,Wunderground v.1.15,2013-03-05 16:35:00,
2013-03-05 11:41:00,40.8,39.2,29.90,WNW,298,0.0,0.0,94,0.00,,,0.04,Wunderground v.1.15,2013-03-05 16:41:00,
2013-03-05 11:51:00,41.3,39.7,29.89,WNW,298,0.0,1.0,94,0.00,,,0.04,Wunderground v.1.15,2013-03-05 16:51:00,
2013-03-05 11:56:00,41.6,40.0,29.88,WNW,298,0.0,1.0,94,0.00,,,0.04,Wunderground v.1.15,2013-03-05 16:56:00,
2013-03-05 12:01:00,41.9,40.3,29.88,WNW,298,0.0,0.0,94,0.00,,,0.04,Wunderground v.1.15,2013-03-05 17:01:00,
2013-03-05 12:06:00,41.8,39.9,29.88,West,281,0.0,2.0,93,0.00,,,0.04,Wunderground v.1.15,2013-03-05 17:06:00,
2013-03-05 12:12:00,41.6,39.7,29.88,West,281,1.0,1.0,93,0.00,,,0.04,Wunderground v.1.15,2013-03-05 17:12:00,
2013-03-05 12:18:00,41.5,39.6,29.88,West,281,0.0,1.0,93,0.00,,,0.04,Wunderground v.1.15,2013-03-05 17:18:00,
2013-03-05 12:23:00,41.5,39.6,29.87,West,281,0.0,0.0,93,0.00,,,0.04,Wunderground v.1.15,2013-03-05 17:23:00,
2013-03-05 12:29:00,41.7,39.8,29.88,West,281,0.0,0.0,93,0.00,,,0.04,Wunderground v.1.15,2013-03-05 17:29:00,
2013-03-05 12:35:00,41.9,40.0,29.87,West,281,0.0,0.0,93,0.00,,,0.04,Wunderground v.1.15,2013-03-05 17:35:00,
2013-03-05 12:41:00,42.1,40.2,29.87,West,281,0.0,1.0,93,0.00,,,0.04,Wunderground v.1.15,2013-03-05 17:41:00,
2013-03-05 12:51:00,42.2,40.3,29.87,West,277,0.0,0.0,93,0.00,,,0.04,Wunderground v.1.15,2013-03-05 17:51:00,
2013-03-05 12:56:00,42.2,40.3,29.86,West,277,0.0,1.0,93,0.00,,,0.04,Wunderground v.1.15,2013-03-05 17:56:00,
2013-03-05 13:02:00,42.2,40.0,29.86,West,277,0.0,0.0,92,0.00,,,0.04,Wunderground v.1.15,2013-03-05 18:02:00,
2013-03-05 13:08:00,42.3,40.1,29.85,West,277,0.0,1.0,92,0.00,,,0.04,Wunderground v.1.15,2013-03-05 18:08:00,
2013-03-05 13:13:00,42.4,40.2,29.84,West,277,0.0,0.0,92,0.00,,,0.04,Wunderground v.1.15,2013-03-05 18:13:00,
2013-03-05 13:19:00,42.4,40.2,29.84,West,277,0.0,0.0,92,0.00,,,0.04,Wunderground v.1.15,2013-03-05 18:19:00,
2013-03-05 13:24:00,42.5,40.3,29.84,West,277,0.0,0.0,92,0.00,,,0.04,Wunderground v.1.15,2013-03-05 18:24:00,
2013-03-05 13:30:00,42.5,40.1,29.83,West,277,0.0,0.0,91,0.00,,,0.04,Wunderground v.1.15,2013-03-05 18:30:00,
2013-03-05 13:35:00,42.7,40.5,29.83,West,277,0.0,0.0,92,0.00,,,0.04,Wunderground v.1.15,2013-03-05 18:35:00,
2013-03-05 13:41:00,42.8,40.6,29.82,West,277,0.0,0.0,92,0.00,,,0.04,Wunderground v.1.15,2013-03-05 18:41:00,
2013-03-05 13:51:00,43.2,41.0,29.81,West,277,0.0,0.0,92,0.00,,,0.04,Wunderground v.1.15,2013-03-05 18:51:00,
2013-03-05 13:56:00,43.5,41.6,29.80,West,277,0.0,2.0,93,0.00,,,0.04,Wunderground v.1.15,2013-03-05 18:56:00,
2013-03-05 14:02:00,43.6,41.7,29.80,West,277,0.0,0.0,93,0.00,,,0.04,Wunderground v.1.15,2013-03-05 19:02:00,
2013-03-05 14:08:00,43.8,41.6,29.80,West,277,0.0,0.0,92,0.00,,,0.04,Wunderground v.1.15,2013-03-05 19:08:00,
2013-03-05 14:13:00,43.9,42.0,29.79,West,277,0.0,0.0,93,0.00,,,0.04,Wunderground v.1.15,2013-03-05 19:13:00,
2013-03-05 14:19:00,44.1,42.2,29.79,West,277,0.0,0.0,93,0.00,,,0.04,Wunderground v.1.15,2013-03-05 19:19:00,
2013-03-05 14:24:00,44.3,42.4,29.78,West,277,0.0,0.0,93,0.00,,,0.04,Wunderground v.1.15,2013-03-05 19:24:00,
2013-03-05 14:30:00,44.7,43.1,29.77,West,277,0.0,0.0,94,0.00,,,0.04,Wunderground v.1.15,2013-03-05 19:30:00,
2013-03-05 14:36:00,45.2,43.6,29.76,West,277,0.0,0.0,94,0.00,,,0.04,Wunderground v.1.15,2013-03-05 19:36:00,
2013-03-05 14:41:00,45.7,44.4,29.75,West,277,0.0,0.0,95,0.00,,,0.04,Wunderground v.1.15,2013-03-05 19:41:00,
2013-03-05 14:51:00,46.8,45.4,29.74,SSE,154,1.0,1.0,95,0.00,,,0.04,Wunderground v.1.15,2013-03-05 19:51:00,
2013-03-05 14:56:00,47.1,45.5,29.73,SSE,148,1.0,1.0,94,0.00,,,0.04,Wunderground v.1.15,2013-03-05 19:56:00,
2013-03-05 15:02:00,47.2,45.3,29.73,SE,132,0.0,1.0,93,0.00,,,0.04,Wunderground v.1.15,2013-03-05 20:02:00,
2013-03-05 15:07:00,47.2,45.3,29.73,SSE,153,0.0,1.0,93,0.00,,,0.04,Wunderground v.1.15,2013-03-05 20:07:00,
2013-03-05 15:13:00,47.1,44.9,29.73,SSE,153,0.0,0.0,92,0.00,,,0.04,Wunderground v.1.15,2013-03-05 20:13:00,
2013-03-05 15:19:00,47.1,44.9,29.73,SSE,153,0.0,0.0,92,0.00,,,0.04,Wunderground v.1.15,2013-03-05 20:19:00,
2013-03-05 15:24:00,47.1,44.9,29.72,SSE,153,0.0,0.0,92,0.00,,,0.04,Wunderground v.1.15,2013-03-05 20:24:00,
2013-03-05 15:29:00,47.0,44.8,29.72,SSE,153,0.0,0.0,92,0.00,,,0.04,Wunderground v.1.15,2013-03-05 20:29:00,
2013-03-05 15:34:00,47.0,44.8,29.72,SSE,153,0.0,0.0,92,0.00,,,0.04,Wunderground v.1.15,2013-03-05 20:34:00,
2013-03-05 15:40:00,47.0,44.8,29.71,SSE,153,0.0,0.0,92,0.00,,,0.04,Wunderground v.1.15,2013-03-05 20:40:00,
2013-03-05 15:51:00,47.1,45.2,29.69,SSE,153,0.0,0.0,93,0.00,,,0.05,Wunderground v.1.15,2013-03-05 20:51:00,
2013-03-05 15:56:00,47.1,45.2,29.68,SSE,153,0.0,2.0,93,0.06,,,0.06,Wunderground v.1.15,2013-03-05 20:56:00,
2013-03-05 16:02:00,47.1,45.2,29.67,SSE,153,0.0,1.0,93,0.06,,,0.06,Wunderground v.1.15,2013-03-05 21:02:00,
2013-03-05 16:07:00,47.0,45.1,29.65,SSE,153,0.0,1.0,93,0.06,,,0.07,Wunderground v.1.15,2013-03-05 21:07:00,
2013-03-05 16:13:00,46.8,44.9,29.64,SSE,153,0.0,0.0,93,0.13,,,0.08,Wunderground v.1.15,2013-03-05 21:13:00,
2013-03-05 16:18:00,46.7,44.8,29.63,SSE,153,0.0,0.0,93,0.15,,,0.10,Wunderground v.1.15,2013-03-05 21:18:00,
2013-03-05 16:24:00,46.7,45.1,29.63,West,261,0.0,2.0,94,0.15,,,0.11,Wunderground v.1.15,2013-03-05 21:24:00,
2013-03-05 16:30:00,46.8,45.2,29.61,West,261,1.0,1.0,94,0.08,,,0.12,Wunderground v.1.15,2013-03-05 21:30:00,
2013-03-05 16:36:00,46.8,45.2,29.60,SSW,193,0.0,2.0,94,0.16,,,0.13,Wunderground v.1.15,2013-03-05 21:36:00,
2013-03-05 16:42:00,47.0,45.6,29.61,West,279,1.0,3.0,95,0.49,,,0.17,Wunderground v.1.15,2013-03-05 21:42:00,
2013-03-05 16:51:00,46.8,45.2,29.62,ESE,122,2.0,2.0,94,0.40,,,0.23,Wunderground v.1.15,2013-03-05 21:51:00,
2013-03-05 16:56:00,46.5,44.9,29.63,NW,311,1.0,2.0,94,0.40,,,0.28,Wunderground v.1.15,2013-03-05 21:56:00,
2013-03-05 17:02:00,46.4,44.8,29.62,North,360,1.0,3.0,94,0.36,,,0.34,Wunderground v.1.15,2013-03-05 22:02:00,
2013-03-05 17:07:00,46.3,44.9,29.63,East,88,2.0,3.0,95,0.42,,,0.37,Wunderground v.1.15,2013-03-05 22:07:00,
2013-03-05 17:13:00,46.3,44.9,29.64,NW,321,1.0,3.0,95,0.28,,,0.41,Wunderground v.1.15,2013-03-05 22:13:00,
2013-03-05 17:18:00,46.3,44.9,29.63,NE,43,1.0,3.0,95,0.30,,,0.44,Wunderground v.1.15,2013-03-05 22:18:00,
2013-03-05 17:24:00,46.2,44.8,29.67,NW,323,1.0,4.0,95,0.38,,,0.47,Wunderground v.1.15,2013-03-05 22:24:00,
2013-03-05 17:29:00,46.3,44.9,29.68,North,355,2.0,4.0,95,0.47,,,0.54,Wunderground v.1.15,2013-03-05 22:29:00,
2013-03-05 17:35:00,46.3,44.9,29.68,North,355,1.0,2.0,95,0.16,,,0.56,Wunderground v.1.15,2013-03-05 22:35:00,
2013-03-05 17:41:00,46.4,45.0,29.66,North,355,0.0,0.0,95,0.34,,,0.59,Wunderground v.1.15,2013-03-05 22:41:00,
2013-03-05 17:51:00,46.5,45.1,29.64,NNW,340,1.0,1.0,95,0.05,,,0.59,Wunderground v.1.15,2013-03-05 22:51:00,
2013-03-05 17:56:00,46.7,45.6,29.64,NNW,340,0.0,3.0,96,0.04,,,0.59,Wunderground v.1.15,2013-03-05 22:56:00,
2013-03-05 18:02:00,46.8,45.7,29.63,NNW,340,0.0,0.0,96,0.00,,,0.59,Wunderground v.1.15,2013-03-05 23:02:00,
2013-03-05 18:08:00,46.9,45.8,29.63,NNW,340,0.0,1.0,96,0.00,,,0.59,Wunderground v.1.15,2013-03-05 23:08:00,
2013-03-05 18:14:00,47.0,45.9,29.64,SSE,157,1.0,2.0,96,0.00,,,0.59,Wunderground v.1.15,2013-03-05 23:14:00,
2013-03-05 18:19:00,47.1,46.0,29.64,NNW,341,1.0,3.0,96,0.00,,,0.60,Wunderground v.1.15,2013-03-05 23:19:00,
2013-03-05 18:24:00,47.3,46.2,29.63,NW,315,1.0,3.0,96,0.00,,,0.60,Wunderground v.1.15,2013-03-05 23:24:00,
2013-03-05 18:29:00,47.7,46.6,29.63,WNW,294,1.0,4.0,96,0.00,,,0.60,Wunderground v.1.15,2013-03-05 23:29:00,
2013-03-05 18:35:00,47.8,46.2,29.64,ENE,78,1.0,2.0,94,0.00,,,0.60,Wunderground v.1.15,2013-03-05 23:35:00,
2013-03-05 18:41:00,47.5,45.6,29.64,NE,40,1.0,2.0,93,0.00,,,0.60,Wunderground v.1.15,2013-03-05 23:41:00,
2013-03-05 18:51:00,47.9,45.7,29.65,ENE,71,2.0,2.0,92,0.00,,,0.60,Wunderground v.1.15,2013-03-05 23:51:00,
2013-03-05 18:56:00,48.1,45.6,29.64,East,85,2.0,3.0,91,0.00,,,0.60,Wunderground v.1.15,2013-03-05 23:56:00,
2013-03-05 19:02:00,47.8,45.3,29.64,WNW,298,1.0,2.0,91,0.00,,,0.60,Wunderground v.1.15,2013-03-06 00:02:00,
2013-03-05 19:08:00,48.3,45.2,29.64,NE,38,2.0,6.0,89,0.00,,,0.60,Wunderground v.1.15,2013-03-06 00:08:00,
2013-03-05 19:14:00,48.5,44.8,29.65,ESE,111,2.0,4.0,87,0.00,,,0.60,Wunderground v.1.15,2013-03-06 00:14:00,
2013-03-05 19:19:00,48.9,44.3,29.64,North,349,2.0,4.0,84,0.00,,,0.60,Wunderground v.1.15,2013-03-06 00:19:00,
2013-03-05 19:25:00,48.6,44.3,29.64,East,89,2.0,4.0,85,0.00,,,0.60,Wunderground v.1.15,2013-03-06 00:25:00,
2013-03-05 19:30:00,48.0,44.0,29.64,SE,126,2.0,2.0,86,0.00,,,0.60,Wunderground v.1.15,2013-03-06 00:30:00,
2013-03-05 19:36:00,48.0,43.4,29.65,NNE,27,2.0,5.0,84,0.00,,,0.60,Wunderground v.1.15,2013-03-06 00:36:00,
2013-03-05 19:41:00,47.8,43.5,29.65,NE,46,2.0,2.0,85,0.00,,,0.60,Wunderground v.1.15,2013-03-06 00:41:00,
2013-03-05 19:51:00,47.7,42.8,29.65,NE,56,2.0,2.0,83,0.00,,,0.60,Wunderground v.1.15,2013-03-06 00:51:00,
2013-03-05 19:56:00,47.5,42.6,29.65,ESE,117,3.0,4.0,83,0.00,,,0.60,Wunderground v.1.15,2013-03-06 00:56:00,
2013-03-05 20:01:00,47.5,42.0,29.65,ESE,104,3.0,3.0,81,0.00,,,0.60,Wunderground v.1.15,2013-03-06 01:01:00,
2013-03-05 20:07:00,47.4,41.2,29.66,NE,46,3.0,5.0,79,0.00,,,0.60,Wunderground v.1.15,2013-03-06 01:07:00,
2013-03-05 20:12:00,46.9,40.4,29.65,NE,41,2.0,3.0,78,0.00,,,0.60,Wunderground v.1.15,2013-03-06 01:12:00,
2013-03-05 20:17:00,46.2,38.4,29.66,NNW,338,3.0,6.0,74,0.00,,,0.60,Wunderground v.1.15,2013-03-06 01:17:00,
2013-03-05 20:22:00,46.0,38.5,29.66,ESE,102,3.0,3.0,75,0.00,,,0.60,Wunderground v.1.15,2013-03-06 01:22:00,
2013-03-05 20:28:00,45.4,37.6,29.67,SSE,155,3.0,16.0,74,0.00,,,0.60,Wunderground v.1.15,2013-03-06 01:28:00,
2013-03-05 20:34:00,45.1,36.6,29.67,ENE,63,3.0,5.0,72,0.00,,,0.60,Wunderground v.1.15,2013-03-06 01:34:00,
2013-03-05 20:40:00,44.7,37.3,29.67,ENE,61,3.0,3.0,75,0.00,,,0.60,Wunderground v.1.15,2013-03-06 01:40:00,
2013-03-05 20:51:00,43.4,36.7,29.67,East,86,3.0,5.0,77,0.00,,,0.60,Wunderground v.1.15,2013-03-06 01:51:00,
2013-03-05 20:56:00,43.2,36.1,29.68,North,5,3.0,9.0,76,0.00,,,0.60,Wunderground v.1.15,2013-03-06 01:56:00,
2013-03-05 21:01:00,43.1,36.0,29.68,NE,43,4.0,4.0,76,0.00,,,0.60,Wunderground v.1.15,2013-03-06 02:01:00,
2013-03-05 21:06:00,42.5,35.8,29.68,NNE,14,4.0,5.0,77,0.00,,,0.60,Wunderground v.1.15,2013-03-06 02:06:00,
2013-03-05 21:11:00,41.6,36.2,29.68,ESE,121,4.0,6.0,81,0.00,,,0.60,Wunderground v.1.15,2013-03-06 02:11:00,
2013-03-05 21:17:00,40.7,35.3,29.67,ENE,74,5.0,7.0,81,0.00,,,0.60,Wunderground v.1.15,2013-03-06 02:17:00,
2013-03-05 21:22:00,40.2,34.8,29.68,NE,40,4.0,5.0,81,0.00,,,0.60,Wunderground v.1.15,2013-03-06 02:22:00,
2013-03-05 21:28:00,39.7,34.3,29.67,NNW,331,4.0,6.0,81,0.00,,,0.60,Wunderground v.1.15,2013-03-06 02:28:00,
2013-03-05 21:34:00,39.3,33.6,29.68,NNE,23,4.0,7.0,80,0.00,,,0.60,Wunderground v.1.15,2013-03-06 02:34:00,
2013-03-05 21:40:00,38.9,32.9,29.68,ESE,109,4.0,4.0,79,0.00,,,0.60,Wunderground v.1.15,2013-03-06 02:40:00,
2013-03-05 21:45:00,38.3,32.4,29.69,SE,136,5.0,7.0,79,0.00,,,0.60,Wunderground v.1.15,2013-03-06 02:45:00,
2013-03-05 21:51:00,37.7,30.8,29.70,SSE,151,5.0,5.0,76,0.00,,,0.60,Wunderground v.1.15,2013-03-06 02:51:00,
2013-03-05 21:56:00,37.1,30.6,29.70,East,88,5.0,13.0,77,0.00,,,0.60,Wunderground v.1.15,2013-03-06 02:56:00,
2013-03-05 22:01:00,36.7,30.2,29.71,SSW,203,4.0,5.0,77,0.00,,,0.60,Wunderground v.1.15,2013-03-06 03:01:00,
2013-03-05 22:07:00,36.1,29.6,29.71,NNW,327,4.0,9.0,77,0.00,,,0.60,Wunderground v.1.15,2013-03-06 03:07:00,
2013-03-05 22:12:00,35.7,28.6,29.71,SE,126,5.0,7.0,75,0.00,,,0.60,Wunderground v.1.15,2013-03-06 03:12:00,
2013-03-05 22:18:00,35.3,27.8,29.71,ENE,71,6.0,7.0,74,0.00,,,0.60,Wunderground v.1.15,2013-03-06 03:18:00,
2013-03-05 22:23:00,35.1,28.0,29.71,ENE,63,5.0,11.0,75,0.00,,,0.60,Wunderground v.1.15,2013-03-06 03:23:00,
2013-03-05 22:29:00,34.8,28.0,29.72,NNW,327,5.0,11.0,76,0.00,,,0.60,Wunderground v.1.15,2013-03-06 03:29:00,
2013-03-05 22:35:00,34.7,27.6,29.72,NNE,21,5.0,7.0,75,0.00,,,0.60,Wunderground v.1.15,2013-03-06 03:35:00,
2013-03-05 22:41:00,34.6,27.2,29.73,WSW,246,5.0,9.0,74,0.00,,,0.60,Wunderground v.1.15,2013-03-06 03:41:00,
2013-03-05 22:51:00,34.4,26.6,29.73,WSW,242,5.0,12.0,73,0.00,,,0.60,Wunderground v.1.15,2013-03-06 03:51:00,
2013-03-05 22:56:00,34.3,26.9,29.72,ENE,63,6.0,12.0,74,0.00,,,0.60,Wunderground v.1.15,2013-03-06 03:56:00,
2013-03-05 23:02:00,34.1,26.3,29.73,East,101,5.0,6.0,73,0.00,,,0.60,Wunderground v.1.15,2013-03-06 04:02:00,
2013-03-05 23:08:00,34.0,26.3,29.73,WSW,257,5.0,11.0,73,0.00,,,0.60,Wunderground v.1.15,2013-03-06 04:08:00,
2013-03-05 23:14:00,33.9,26.5,29.73,East,98,5.0,14.0,74,0.00,,,0.60,Wunderground v.1.15,2013-03-06 04:14:00,
2013-03-05 23:19:00,33.9,26.8,29.73,SW,214,5.0,14.0,75,0.00,,,0.60,Wunderground v.1.15,2013-03-06 04:19:00,
2013-03-05 23:25:00,33.7,26.9,29.73,ENE,69,5.0,8.0,76,0.00,,,0.60,Wunderground v.1.15,2013-03-06 04:25:00,
2013-03-05 23:30:00,33.5,27.4,29.73,West,269,5.0,5.0,78,0.00,,,0.60,Wunderground v.1.15,2013-03-06 04:30:00,
2013-03-05 23:36:00,33.1,27.0,29.73,NW,321,5.0,15.0,78,0.00,,,0.60,Wunderground v.1.15,2013-03-06 04:36:00,
2013-03-05 23:41:00,33.0,26.6,29.73,NNE,27,6.0,10.0,77,0.00,,,0.60,Wunderground v.1.15,2013-03-06 04:41:00,
2013-03-05 23:51:00,33.0,25.9,29.74,NW,311,6.0,6.0,75,0.00,,,0.60,Wunderground v.1.15,2013-03-06 04:51:00,
2013-03-05 23:56:00,32.9,26.2,29.74,East,95,5.0,16.0,76,0.00,,,0.60,Wunderground v.1.15,2013-03-06 04:56:00,